createdAt,value
2018-05-01T00:00:11.925Z,17.47
2018-05-01T00:02:41.026Z,16.00
2018-05-01T00:05:10.098Z,15.33
2018-05-01T00:07:39.206Z,16.17
2018-05-01T00:10:08.264Z,15.37
2018-05-01T00:12:37.324Z,16.63
2018-05-01T00:15:07.164Z,16.00
2018-05-01T00:17:36.215Z,16.03
2018-05-01T00:20:06.064Z,16.10
2018-05-01T00:22:35.236Z,17.10
2018-05-01T00:25:05.042Z,15.03
2018-05-01T00:27:34.899Z,17.80
2018-05-01T00:30:03.977Z,15.20
2018-05-01T00:32:33.069Z,16.20
2018-05-01T00:35:02.164Z,16.50
2018-05-01T00:37:31.210Z,16.27
2018-05-01T00:40:00.598Z,15.60
2018-05-01T00:42:29.673Z,17.53
2018-05-01T00:44:58.768Z,14.90
2018-05-01T00:47:27.839Z,16.30
2018-05-01T00:49:57.726Z,16.97
2018-05-01T00:52:44.512Z,15.93
2018-05-01T00:55:13.596Z,15.33
2018-05-01T00:57:42.661Z,15.53
2018-05-01T01:00:11.735Z,14.70
2018-05-01T01:02:41.591Z,14.90
2018-05-01T01:05:10.637Z,15.30
2018-05-01T01:07:40.491Z,14.50
2018-05-01T01:10:09.617Z,16.80
2018-05-01T01:12:38.689Z,14.47
2018-05-01T01:15:07.759Z,15.27
2018-05-01T01:17:36.845Z,15.90
2018-05-01T01:20:05.903Z,15.30
2018-05-01T01:22:34.992Z,16.07
2018-05-01T01:25:04.074Z,15.70
2018-05-01T01:27:33.143Z,14.90
2018-05-01T01:30:02.247Z,14.90
2018-05-01T01:32:31.311Z,14.70
2018-05-01T01:34:59.577Z,14.87
2018-05-01T01:37:28.659Z,15.73
2018-05-01T01:39:57.122Z,14.90
2018-05-01T01:42:25.445Z,15.57
2018-05-01T01:44:53.748Z,15.13
2018-05-01T01:47:22.030Z,15.60
2018-05-01T01:49:50.305Z,14.70
2018-05-01T01:52:18.624Z,14.17
2018-05-01T01:54:47.670Z,15.87
2018-05-01T01:57:15.964Z,15.00
2018-05-01T01:59:44.301Z,14.40
2018-05-01T02:02:12.608Z,15.40
2018-05-01T02:04:40.866Z,14.50
2018-05-01T02:07:09.332Z,14.80
2018-05-01T02:09:37.600Z,13.60
2018-05-01T02:12:06.672Z,14.50
2018-05-01T02:14:35.795Z,16.80
2018-05-01T02:17:04.066Z,14.00
2018-05-01T02:19:32.420Z,14.03
2018-05-01T02:22:00.716Z,14.53
2018-05-01T02:24:29.765Z,13.90
2018-05-01T02:26:58.030Z,14.10
2018-05-01T02:29:26.333Z,15.40
2018-05-01T02:31:54.608Z,14.23
2018-05-01T02:34:22.893Z,14.57
2018-05-01T02:36:51.317Z,15.10
2018-05-01T02:39:19.659Z,15.30
2018-05-01T02:41:47.927Z,16.67
2018-05-01T02:44:16.283Z,14.13
2018-05-01T02:46:44.770Z,16.10
2018-05-01T02:49:13.031Z,14.77
2018-05-01T02:51:41.333Z,14.07
2018-05-01T02:54:09.605Z,14.50
2018-05-01T02:56:37.864Z,13.20
2018-05-01T02:59:06.197Z,14.70
2018-05-01T03:01:34.466Z,13.17
2018-05-01T03:04:03.507Z,14.57
2018-05-01T03:06:31.852Z,14.80
2018-05-01T03:09:00.195Z,14.10
2018-05-01T03:11:28.457Z,13.93
2018-05-01T03:13:56.766Z,14.40
2018-05-01T03:16:25.031Z,14.10
2018-05-01T03:18:54.105Z,13.37
2018-05-01T03:21:22.415Z,14.43
2018-05-01T03:23:50.688Z,13.77
2018-05-01T03:26:19.755Z,13.20
2018-05-01T03:28:48.026Z,13.93
2018-05-01T03:31:16.294Z,14.03
2018-05-01T03:33:44.585Z,13.53
2018-05-01T03:36:12.867Z,14.30
2018-05-01T03:38:41.157Z,13.57
2018-05-01T03:41:10.221Z,13.90
2018-05-01T03:43:38.511Z,13.87
2018-05-01T03:46:06.907Z,14.70
2018-05-01T03:48:35.172Z,13.20
2018-05-01T03:51:04.253Z,13.93
2018-05-01T03:53:32.540Z,14.07
2018-05-01T03:56:04.927Z,14.20
2018-05-01T03:58:33.964Z,15.50
2018-05-01T04:01:02.249Z,14.67
2018-05-01T04:03:30.613Z,14.70
2018-05-01T04:05:58.875Z,14.83
2018-05-01T04:08:27.201Z,15.23
2018-05-01T04:10:56.499Z,14.70
2018-05-01T04:13:24.778Z,14.63
2018-05-01T04:15:53.104Z,14.63
2018-05-01T04:18:21.453Z,14.87
2018-05-01T04:20:50.538Z,15.73
2018-05-01T04:23:18.841Z,12.77
2018-05-01T04:25:47.109Z,13.70
2018-05-01T04:28:16.162Z,14.37
2018-05-01T04:30:44.469Z,14.20
2018-05-01T04:33:13.537Z,14.30
2018-05-01T04:35:41.844Z,14.80
2018-05-01T04:38:10.907Z,13.70
2018-05-01T04:40:39.201Z,13.87
2018-05-01T04:43:07.493Z,14.40
2018-05-01T04:45:36.542Z,14.83
2018-05-01T04:48:04.871Z,15.30
2018-05-01T04:50:33.349Z,14.20
2018-05-01T04:53:02.430Z,13.40
2018-05-01T04:55:31.485Z,14.57
2018-05-01T04:57:59.789Z,13.73
2018-05-01T05:00:28.065Z,13.83
2018-05-01T05:02:56.387Z,14.77
2018-05-01T05:05:24.825Z,12.47
2018-05-01T05:07:53.098Z,14.73
2018-05-01T05:10:21.381Z,14.03
2018-05-01T05:12:50.454Z,15.60
2018-05-01T05:15:18.731Z,14.87
2018-05-01T05:17:46.995Z,14.30
2018-05-01T05:20:15.295Z,14.47
2018-05-01T05:22:43.553Z,14.20
2018-05-01T05:25:11.873Z,15.20
2018-05-01T05:27:40.163Z,14.40
2018-05-01T05:30:08.426Z,14.87
2018-05-01T05:32:37.492Z,13.57
2018-05-01T05:35:05.790Z,15.70
2018-05-01T05:37:34.842Z,14.20
2018-05-01T05:40:03.297Z,14.77
2018-05-01T05:42:31.589Z,14.30
2018-05-01T05:44:59.870Z,16.67
2018-05-01T05:47:28.167Z,17.73
2018-05-01T05:49:56.437Z,14.67
2018-05-01T05:52:24.750Z,14.70
2018-05-01T05:54:53.010Z,14.30
2018-05-01T05:57:22.033Z,14.77
2018-05-01T05:59:50.432Z,16.20
2018-05-01T06:02:18.759Z,15.80
2018-05-01T06:04:47.054Z,14.63
2018-05-01T06:07:16.131Z,14.97
2018-05-01T06:09:44.479Z,14.27
2018-05-01T06:12:12.860Z,20.97
2018-05-01T06:14:41.149Z,22.37
2018-05-01T06:17:09.467Z,16.63
2018-05-01T06:19:37.775Z,16.70
2018-05-01T06:22:06.628Z,15.70
2018-05-01T06:24:34.916Z,15.60
2018-05-01T06:27:03.207Z,17.27
2018-05-01T06:29:31.474Z,18.63
2018-05-01T06:31:59.777Z,17.80
2018-05-01T06:34:28.093Z,93.37
2018-05-01T06:36:57.149Z,53.20
2018-05-01T06:39:25.418Z,22.80
2018-05-01T06:41:53.706Z,17.80
2018-05-01T06:44:21.968Z,14.70
2018-05-01T06:46:51.061Z,15.00
2018-05-01T06:49:19.306Z,14.43
2018-05-01T06:51:47.575Z,15.00
2018-05-01T06:54:15.860Z,12.67
2018-05-01T06:56:44.221Z,13.83
2018-05-01T06:59:13.315Z,11.63
2018-05-01T07:01:42.352Z,10.47
2018-05-01T07:04:10.687Z,11.40
2018-05-01T07:06:39.731Z,10.27
2018-05-01T07:09:08.805Z,10.57
2018-05-01T07:11:37.074Z,9.13
2018-05-01T07:14:05.369Z,8.03
2018-05-01T07:16:33.637Z,8.50
2018-05-01T07:19:02.085Z,20.37
2018-05-01T07:21:31.111Z,26.13
2018-05-01T07:23:59.597Z,10.33
2018-05-01T07:26:28.074Z,10.83
2018-05-01T07:28:56.288Z,9.40
2018-05-01T07:31:24.551Z,9.17
2018-05-01T07:33:52.868Z,7.90
2018-05-01T07:36:21.896Z,7.87
2018-05-01T07:38:50.164Z,8.10
2018-05-01T07:41:18.469Z,6.87
2018-05-01T07:43:46.733Z,8.53
2018-05-01T07:46:14.996Z,7.93
2018-05-01T07:48:43.414Z,7.30
2018-05-01T07:51:11.766Z,8.57
2018-05-01T07:53:40.010Z,7.67
2018-05-01T07:56:08.314Z,7.40
2018-05-01T07:58:36.593Z,6.87
2018-05-01T08:01:04.849Z,6.07
2018-05-01T08:03:33.140Z,6.13
2018-05-01T08:06:01.416Z,6.87
2018-05-01T08:08:29.678Z,6.40
2018-05-01T08:10:57.970Z,5.00
2018-05-01T08:13:26.216Z,4.90
2018-05-01T08:15:55.237Z,5.20
2018-05-01T08:18:23.550Z,5.10
2018-05-01T08:20:51.826Z,4.30
2018-05-01T08:23:20.082Z,4.30
2018-05-01T08:25:52.734Z,4.47
2018-05-01T08:28:21.015Z,4.60
2018-05-01T08:30:49.322Z,4.00
2018-05-01T08:33:17.585Z,4.50
2018-05-01T08:35:45.833Z,4.50
2018-05-01T08:38:14.213Z,4.00
2018-05-01T08:40:42.506Z,3.60
2018-05-01T08:43:10.733Z,4.20
2018-05-01T08:45:39.800Z,3.30
2018-05-01T08:48:08.066Z,3.80
2018-05-01T08:50:36.322Z,4.10
2018-05-01T08:53:04.638Z,4.67
2018-05-01T08:55:32.905Z,4.00
2018-05-01T08:58:01.169Z,4.83
2018-05-01T09:00:29.500Z,2.93
2018-05-01T09:02:58.562Z,3.10
2018-05-01T09:05:26.803Z,3.23
2018-05-01T09:07:55.185Z,4.03
2018-05-01T09:10:23.428Z,3.20
2018-05-01T09:12:51.698Z,2.80
2018-05-01T09:15:20.800Z,2.93
2018-05-01T09:17:49.169Z,2.83
2018-05-01T09:20:17.333Z,2.80
2018-05-01T09:22:46.406Z,2.50
2018-05-01T09:25:14.670Z,3.03
2018-05-01T09:27:43.098Z,2.50
2018-05-01T09:30:12.166Z,2.80
2018-05-01T09:32:40.433Z,2.90
2018-05-01T09:35:08.693Z,2.80
2018-05-01T09:37:37.001Z,2.80
2018-05-01T09:40:06.022Z,2.40
2018-05-01T09:42:34.282Z,2.10
2018-05-01T09:45:03.464Z,2.60
2018-05-01T09:47:31.758Z,2.20
2018-05-01T09:49:59.982Z,2.50
2018-05-01T09:52:29.060Z,2.60
2018-05-01T09:54:58.140Z,2.50
2018-05-01T09:57:27.215Z,2.93
2018-05-01T09:59:57.045Z,2.60
2018-05-01T10:02:26.085Z,2.80
2018-05-01T10:04:55.154Z,7.03
2018-05-01T10:07:24.251Z,14.97
2018-05-01T10:09:53.341Z,2.53
2018-05-01T10:12:22.454Z,2.20
2018-05-01T10:14:51.499Z,2.47
2018-05-01T10:17:21.330Z,2.50
2018-05-01T10:19:50.845Z,2.27
2018-05-01T10:22:19.888Z,2.80
2018-05-01T10:24:48.989Z,3.07
2018-05-01T10:27:18.036Z,2.70
2018-05-01T10:29:47.205Z,2.70
2018-05-01T10:32:16.264Z,2.40
2018-05-01T10:34:45.343Z,2.43
2018-05-01T10:37:14.412Z,2.43
2018-05-01T10:39:46.819Z,2.00
2018-05-01T10:42:16.901Z,2.10
2018-05-01T10:44:46.001Z,2.10
2018-05-01T10:47:15.062Z,2.73
2018-05-01T10:49:44.954Z,2.77
2018-05-01T10:52:14.025Z,2.23
2018-05-01T10:54:43.200Z,3.40
2018-05-01T10:57:12.199Z,2.43
2018-05-01T10:59:41.396Z,2.33
2018-05-01T11:02:10.468Z,2.10
2018-05-01T11:04:39.539Z,2.60
2018-05-01T11:07:09.351Z,2.13
2018-05-01T11:09:39.204Z,2.90
2018-05-01T11:12:08.259Z,2.50
2018-05-01T11:14:38.197Z,2.37
2018-05-01T11:17:07.240Z,2.30
2018-05-01T11:19:36.283Z,2.93
2018-05-01T11:22:05.376Z,2.13
2018-05-01T11:24:34.499Z,2.50
2018-05-01T11:27:03.491Z,2.50
2018-05-01T11:29:32.590Z,2.60
2018-05-01T11:32:01.693Z,2.17
2018-05-01T11:34:30.733Z,2.50
2018-05-01T11:37:00.564Z,4.33
2018-05-01T11:39:29.605Z,4.87
2018-05-01T11:41:58.766Z,12.87
2018-05-01T11:44:27.829Z,27.23
2018-05-01T11:46:57.673Z,2.80
2018-05-01T11:49:26.713Z,2.60
2018-05-01T11:51:55.789Z,2.50
2018-05-01T11:54:24.873Z,2.43
2018-05-01T11:56:53.920Z,3.80
2018-05-01T11:59:23.985Z,3.30
2018-05-01T12:01:53.048Z,2.40
2018-05-01T12:04:22.190Z,2.10
2018-05-01T12:06:51.176Z,2.70
2018-05-01T12:09:20.244Z,2.30
2018-05-01T12:11:49.314Z,2.60
2018-05-01T12:14:19.122Z,2.33
2018-05-01T12:16:49.062Z,2.43
2018-05-01T12:19:18.135Z,2.33
2018-05-01T12:21:47.964Z,2.50
2018-05-01T12:24:17.034Z,2.83
2018-05-01T12:26:46.124Z,2.60
2018-05-01T12:29:15.154Z,2.47
2018-05-01T12:31:44.215Z,2.73
2018-05-01T12:34:14.019Z,2.97
2018-05-01T12:36:43.210Z,2.50
2018-05-01T12:39:12.317Z,2.30
2018-05-01T12:41:41.804Z,2.60
2018-05-01T12:44:10.876Z,2.97
2018-05-01T12:46:39.952Z,2.40
2018-05-01T12:49:08.998Z,3.20
2018-05-01T12:51:38.051Z,2.90
2018-05-01T12:54:07.121Z,2.47
2018-05-01T12:56:36.179Z,2.80
2018-05-01T12:59:05.249Z,2.57
2018-05-01T13:01:34.309Z,2.20
2018-05-01T13:04:03.389Z,2.57
2018-05-01T13:06:32.465Z,2.50
2018-05-01T13:09:01.516Z,2.83
2018-05-01T13:11:30.580Z,2.27
2018-05-01T13:13:59.660Z,2.47
2018-05-01T13:16:29.464Z,2.80
2018-05-01T13:18:59.298Z,2.40
2018-05-01T13:21:28.339Z,2.70
2018-05-01T13:23:57.408Z,2.70
2018-05-01T13:26:26.466Z,2.40
2018-05-01T13:28:56.312Z,2.43
2018-05-01T13:31:25.383Z,2.40
2018-05-01T13:33:55.234Z,2.77
2018-05-01T13:36:24.316Z,2.73
2018-05-01T13:38:53.363Z,2.20
2018-05-01T13:41:22.451Z,2.80
2018-05-01T13:43:51.485Z,2.30
2018-05-01T13:46:20.542Z,2.33
2018-05-01T13:48:49.609Z,2.33
2018-05-01T13:51:18.730Z,2.87
2018-05-01T13:53:47.780Z,2.43
2018-05-01T13:56:16.909Z,2.50
2018-05-01T13:58:46.010Z,2.70
2018-05-01T14:01:15.049Z,2.73
2018-05-01T14:03:44.120Z,2.60
2018-05-01T14:06:13.170Z,2.30
2018-05-01T14:08:42.235Z,2.67
2018-05-01T14:11:11.384Z,2.33
2018-05-01T14:13:40.424Z,2.30
2018-05-01T14:16:09.464Z,2.23
2018-05-01T14:18:38.550Z,2.90
2018-05-01T14:21:07.611Z,2.33
2018-05-01T14:23:37.413Z,2.90
2018-05-01T14:26:06.621Z,2.47
2018-05-01T14:28:35.611Z,2.30
2018-05-01T14:31:04.820Z,2.13
2018-05-01T14:33:33.889Z,2.17
2018-05-01T14:36:02.954Z,2.37
2018-05-01T14:38:32.040Z,2.43
2018-05-01T14:41:01.130Z,2.00
2018-05-01T14:43:30.172Z,3.07
2018-05-01T14:45:59.206Z,2.77
2018-05-01T14:48:28.279Z,2.53
2018-05-01T14:50:57.378Z,2.50
2018-05-01T14:53:26.430Z,2.60
2018-05-01T14:55:55.485Z,2.20
2018-05-01T14:58:24.529Z,2.53
2018-05-01T15:00:54.357Z,2.20
2018-05-01T15:03:23.407Z,2.30
2018-05-01T15:05:52.497Z,2.27
2018-05-01T15:08:21.567Z,2.80
2018-05-01T15:10:50.614Z,2.30
2018-05-01T15:13:20.455Z,2.17
2018-05-01T15:15:49.501Z,2.13
2018-05-01T15:18:18.596Z,2.17
2018-05-01T15:20:47.651Z,2.20
2018-05-01T15:23:16.693Z,2.37
2018-05-01T15:25:45.784Z,2.30
2018-05-01T15:28:14.841Z,2.30
2018-05-01T15:30:43.924Z,2.27
2018-05-01T15:33:13.052Z,2.43
2018-05-01T15:35:42.078Z,2.27
2018-05-01T15:38:11.914Z,2.57
2018-05-01T15:40:40.960Z,16.50
2018-05-01T15:43:10.048Z,7.57
2018-05-01T15:45:39.112Z,6.80
2018-05-01T15:48:08.230Z,2.90
2018-05-01T15:50:37.272Z,2.67
2018-05-01T15:53:07.109Z,2.40
2018-05-01T15:55:36.178Z,3.00
2018-05-01T15:58:05.981Z,2.60
2018-05-01T16:00:35.871Z,2.30
2018-05-01T16:03:05.669Z,2.30
2018-05-01T16:05:35.503Z,2.70
2018-05-01T16:08:04.547Z,2.30
2018-05-01T16:10:33.606Z,2.97
2018-05-01T16:13:03.432Z,2.90
2018-05-01T16:15:33.273Z,2.77
2018-05-01T16:18:02.325Z,2.53
2018-05-01T16:20:31.548Z,2.90
2018-05-01T16:23:01.397Z,2.80
2018-05-01T16:25:31.849Z,3.07
2018-05-01T16:28:00.929Z,3.40
2018-05-01T16:30:29.996Z,4.00
2018-05-01T16:32:59.113Z,3.07
2018-05-01T16:35:28.149Z,2.87
2018-05-01T16:37:58.208Z,2.97
2018-05-01T16:40:27.243Z,2.87
2018-05-01T16:42:56.361Z,3.30
2018-05-01T16:45:26.481Z,3.30
2018-05-01T16:47:55.648Z,4.00
2018-05-01T16:50:24.766Z,3.10
2018-05-01T16:52:54.466Z,3.80
2018-05-01T16:55:24.166Z,3.57
2018-05-01T16:57:53.772Z,4.23
2018-05-01T17:00:22.819Z,4.77
2018-05-01T17:02:51.969Z,6.30
2018-05-01T17:05:21.018Z,5.40
2018-05-01T17:07:50.105Z,4.63
2018-05-01T17:10:19.223Z,5.40
2018-05-01T17:12:48.357Z,4.67
2018-05-01T17:15:18.145Z,7.53
2018-05-01T17:17:47.241Z,7.53
2018-05-01T17:20:16.345Z,5.07
2018-05-01T17:22:45.478Z,5.23
2018-05-01T17:25:15.341Z,5.17
2018-05-01T17:27:44.401Z,5.17
2018-05-01T17:30:13.484Z,6.20
2018-05-01T17:32:42.595Z,6.60
2018-05-01T17:35:11.648Z,6.73
2018-05-01T17:37:40.690Z,5.40
2018-05-01T17:40:09.815Z,5.70
2018-05-01T17:42:38.883Z,5.03
2018-05-01T17:45:07.925Z,4.33
2018-05-01T17:47:37.104Z,5.63
2018-05-01T17:50:06.149Z,5.13
2018-05-01T17:52:35.260Z,5.80
2018-05-01T17:55:04.632Z,5.67
2018-05-01T17:57:33.694Z,5.33
2018-05-01T18:00:02.715Z,5.43
2018-05-01T18:02:32.596Z,7.83
2018-05-01T18:05:01.639Z,6.50
2018-05-01T18:07:30.676Z,5.53
2018-05-01T18:09:59.871Z,4.43
2018-05-01T18:12:28.946Z,6.20
2018-05-01T18:14:57.993Z,6.20
2018-05-01T18:17:28.021Z,5.73
2018-05-01T18:19:57.840Z,13.47
2018-05-01T18:22:27.952Z,7.73
2018-05-01T18:24:57.846Z,7.70
2018-05-01T18:27:27.154Z,6.83
2018-05-01T18:29:56.215Z,7.10
2018-05-01T18:32:25.343Z,6.93
2018-05-01T18:34:54.385Z,6.60
2018-05-01T18:37:23.425Z,4.90
2018-05-01T18:39:52.545Z,5.03
2018-05-01T18:42:22.361Z,5.07
2018-05-01T18:44:51.415Z,5.03
2018-05-01T18:47:20.493Z,4.90
2018-05-01T18:49:49.524Z,5.13
2018-05-01T18:52:19.346Z,5.30
2018-05-01T18:54:49.232Z,5.30
2018-05-01T18:57:18.299Z,5.60
2018-05-01T18:59:47.345Z,13.53
2018-05-01T19:02:17.198Z,12.37
2018-05-01T19:04:46.331Z,5.50
2018-05-01T19:07:16.076Z,5.23
2018-05-01T19:09:45.917Z,5.10
2018-05-01T19:12:14.968Z,5.30
2018-05-01T19:14:44.780Z,6.10
2018-05-01T19:17:14.596Z,4.90
2018-05-01T19:19:45.216Z,5.13
2018-05-01T19:22:14.315Z,6.00
2018-05-01T19:24:43.349Z,5.63
2018-05-01T19:27:12.434Z,5.93
2018-05-01T19:29:42.053Z,5.37
2018-05-01T19:32:11.093Z,5.17
2018-05-01T19:34:40.206Z,6.00
2018-05-01T19:37:09.239Z,5.40
2018-05-01T19:39:38.578Z,5.67
2018-05-01T19:42:07.627Z,5.73
2018-05-01T19:44:36.824Z,6.10
2018-05-01T19:47:05.861Z,7.20
2018-05-01T19:49:35.906Z,6.00
2018-05-01T19:52:05.719Z,4.67
2018-05-01T19:54:35.532Z,6.20
2018-05-01T19:57:05.358Z,5.20
2018-05-01T19:59:34.397Z,5.23
2018-05-01T20:02:03.516Z,4.93
2018-05-01T20:04:32.862Z,4.70
2018-05-01T20:07:01.917Z,4.93
2018-05-01T20:09:31.029Z,5.40
2018-05-01T20:12:01.590Z,4.90
2018-05-01T20:14:30.628Z,6.30
2018-05-01T20:16:59.661Z,5.83
2018-05-01T20:19:28.697Z,5.43
2018-05-01T20:21:58.190Z,4.90
2018-05-01T20:24:27.247Z,4.83
2018-05-01T20:26:57.056Z,6.50
2018-05-01T20:29:26.946Z,5.53
2018-05-01T20:31:55.996Z,6.20
2018-05-01T20:34:25.061Z,5.23
2018-05-01T20:36:54.899Z,5.87
2018-05-01T20:39:23.941Z,5.50
2018-05-01T20:41:52.989Z,4.90
2018-05-01T20:44:25.408Z,5.50
2018-05-01T20:46:54.393Z,5.47
2018-05-01T20:49:23.496Z,5.67
2018-05-01T20:51:52.529Z,6.43
2018-05-01T20:54:21.576Z,5.67
2018-05-01T20:56:50.645Z,6.70
2018-05-01T20:59:19.706Z,5.70
2018-05-01T21:01:49.526Z,6.60
2018-05-01T21:04:18.591Z,5.73
2018-05-01T21:06:48.396Z,5.80
2018-05-01T21:09:18.217Z,5.97
2018-05-01T21:11:48.180Z,5.90
2018-05-01T21:14:17.221Z,6.00
2018-05-01T21:16:47.070Z,5.67
2018-05-01T21:19:16.187Z,6.93
2018-05-01T21:21:45.232Z,6.30
2018-05-01T21:24:15.083Z,5.30
2018-05-01T21:26:44.313Z,5.93
2018-05-01T21:29:13.394Z,6.60
2018-05-01T21:31:42.449Z,6.23
2018-05-01T21:34:12.329Z,6.73
2018-05-01T21:36:41.375Z,5.87
2018-05-01T21:39:10.417Z,6.60
2018-05-01T21:41:39.603Z,6.13
2018-05-01T21:44:08.640Z,6.63
2018-05-01T21:46:37.697Z,6.47
2018-05-01T21:49:06.768Z,5.30
2018-05-01T21:51:35.826Z,6.20
2018-05-01T21:54:04.904Z,5.80
2018-05-01T21:56:33.990Z,6.30
2018-05-01T21:59:06.955Z,5.03
2018-05-01T22:01:37.016Z,6.47
2018-05-01T22:04:06.073Z,5.77
2018-05-01T22:06:35.104Z,5.53
2018-05-01T22:09:04.204Z,6.43
2018-05-01T22:11:33.265Z,5.50
2018-05-01T22:14:02.446Z,5.47
2018-05-01T22:16:31.541Z,5.07
2018-05-01T22:19:00.580Z,6.07
2018-05-01T22:21:29.637Z,5.70
2018-05-01T22:23:58.818Z,5.60
2018-05-01T22:26:27.955Z,6.00
2018-05-01T22:28:57.839Z,6.00
2018-05-01T22:31:26.958Z,5.80
2018-05-01T22:33:56.777Z,6.50
2018-05-01T22:36:26.599Z,5.80
2018-05-01T22:38:55.645Z,5.93
2018-05-01T22:41:25.466Z,6.30
2018-05-01T22:43:54.710Z,6.60
2018-05-01T22:46:24.508Z,5.87
2018-05-01T22:48:54.325Z,5.67
2018-05-01T22:51:24.769Z,5.73
2018-05-01T22:53:54.330Z,5.50
2018-05-01T22:56:23.365Z,6.20
2018-05-01T22:58:52.491Z,6.43
2018-05-01T23:01:21.523Z,6.13
2018-05-01T23:03:51.333Z,6.83
2018-05-01T23:06:21.176Z,6.63
2018-05-01T23:08:50.965Z,5.63
2018-05-01T23:11:20.855Z,5.80
2018-05-01T23:13:49.905Z,5.80
2018-05-01T23:16:18.956Z,6.87
2018-05-01T23:18:48.086Z,6.40
2018-05-01T23:21:17.249Z,6.33
2018-05-01T23:23:46.272Z,6.60
2018-05-01T23:26:15.459Z,6.23
2018-05-01T23:28:45.567Z,6.20
2018-05-01T23:31:14.592Z,6.27
2018-05-01T23:33:43.693Z,5.90
2018-05-01T23:36:12.776Z,6.33
2018-05-01T23:38:41.824Z,5.40
2018-05-01T23:41:10.901Z,5.77
2018-05-01T23:43:39.947Z,6.40
2018-05-01T23:46:10.255Z,6.67
2018-05-01T23:48:40.086Z,6.17
2018-05-01T23:51:09.133Z,6.87
2018-05-01T23:53:38.180Z,6.70
2018-05-01T23:56:09.881Z,6.00
2018-05-01T23:58:38.925Z,6.30
